Time;durP1;ratioP1;P1;durP2;ratioP2;P2;SDS_P1;SDS_P2;PMS_P1;PMS_P2;Temp;Humidity;BMP_temperature;BMP_pressure;BME280_temperature;BME280_humidity;BME280_pressure;Samples;Min_cycle;Max_cycle;Signal;HPM_P1;HPM_P2
2024/01/10 00:00:37;;;;;;;19.17;7.30;;;;;;;-5.76;100.00;102928.84;5048995;28;20455;-74
2024/01/10 00:03:03;;;;;;;20.58;7.70;;;;;;;-5.78;100.00;102915.81;5063147;28;20033;-75
2024/01/10 00:05:28;;;;;;;21.00;7.88;;;;;;;-5.79;100.00;102913.97;5054718;28;20399;-77
2024/01/10 00:07:54;;;;;;;20.42;7.53;;;;;;;-5.79;100.00;102917.44;5062914;28;20029;-76
2024/01/10 00:10:19;;;;;;;21.08;7.82;;;;;;;-5.80;100.00;102917.28;5048957;28;20562;-74
2024/01/10 00:12:45;;;;;;;21.50;8.70;;;;;;;-5.81;100.00;102913.81;5063982;28;20384;-76
2024/01/10 00:15:10;;;;;;;22.45;8.98;;;;;;;-5.79;100.00;102912.31;5051005;28;20070;-73
2024/01/10 00:17:35;;;;;;;21.33;8.80;;;;;;;-5.78;100.00;102902.94;5046503;28;20126;-76
2024/01/10 00:20:01;;;;;;;20.08;7.70;;;;;;;-5.75;100.00;102907.47;5059255;28;20487;-74
2024/01/10 00:22:26;;;;;;;20.10;7.70;;;;;;;-5.75;100.00;102904.88;5062187;28;20483;-74
2024/01/10 00:24:51;;;;;;;20.75;7.30;;;;;;;-5.78;100.00;102901.25;5054325;28;20031;-74
2024/01/10 00:27:17;;;;;;;20.42;7.40;;;;;;;-5.76;100.00;102900.50;5063664;28;20549;-74
2024/01/10 00:29:42;;;;;;;19.55;7.03;;;;;;;-5.77;100.00;102897.00;5047395;28;20448;-78
2024/01/10 00:32:08;;;;;;;20.48;6.95;;;;;;;-5.76;100.00;102891.09;5063465;28;20384;-78
2024/01/10 00:34:33;;;;;;;19.33;6.47;;;;;;;-5.76;100.00;102893.69;5043263;28;20056;-78
2024/01/10 00:36:58;;;;;;;19.95;6.75;;;;;;;-5.74;100.00;102902.47;5044395;28;20071;-78
2024/01/10 00:39:24;;;;;;;19.65;6.97;;;;;;;-5.79;100.00;102893.38;5062603;28;20036;-78
2024/01/10 00:41:49;;;;;;;19.38;6.75;;;;;;;-5.83;100.00;102898.94;5060871;28;20448;-78
2024/01/10 00:44:14;;;;;;;19.33;6.50;;;;;;;-5.86;100.00;102896.06;5064100;28;20120;-78
2024/01/10 00:46:40;;;;;;;19.08;6.65;;;;;;;-5.83;100.00;102902.41;5042539;28;20037;-78
2024/01/10 00:49:05;;;;;;;19.20;6.50;;;;;;;-5.86;100.00;102896.06;5062930;28;20040;-78
2024/01/10 00:51:30;;;;;;;18.83;6.43;;;;;;;-5.82;100.00;102898.22;5061770;28;20036;-79
2024/01/10 00:53:56;;;;;;;19.08;6.65;;;;;;;-5.85;100.00;102901.38;5046358;28;20079;-78
2024/01/10 00:56:21;;;;;;;19.88;6.90;;;;;;;-5.80;100.00;102892.44;5060292;28;20032;-78
2024/01/10 00:58:46;;;;;;;19.85;6.68;;;;;;;-5.79;100.00;102889.09;5064002;28;20514;-77
2024/01/10 01:01:12;;;;;;;19.40;6.90;;;;;;;-5.78;100.00;102887.47;5059871;28;20456;-78
2024/01/10 01:03:37;;;;;;;19.08;6.47;;;;;;;-5.84;100.00;102895.47;5067813;28;20074;-78
2024/01/10 01:06:03;;;;;;;19.00;6.90;;;;;;;-5.82;100.00;102885.31;5064105;28;20116;-78
2024/01/10 01:08:28;;;;;;;19.90;6.97;;;;;;;-5.83;100.00;102886.97;5056033;28;20071;-78
2024/01/10 01:10:54;;;;;;;20.48;7.25;;;;;;;-5.84;100.00;102885.16;5065341;28;20109;-78
2024/01/10 01:13:19;;;;;;;19.92;7.22;;;;;;;-5.86;100.00;102889.22;5064986;28;20040;-78
2024/01/10 01:15:44;;;;;;;19.90;7.00;;;;;;;-5.95;100.00;102886.63;5066404;28;20476;-78
2024/01/10 01:18:12;;;;;;;19.85;6.90;;;;;;;-5.93;100.00;102883.28;5050948;28;20055;-78
2024/01/10 01:20:38;;;;;;;19.80;7.00;;;;;;;-5.89;100.00;102885.44;5067021;28;20039;-75
2024/01/10 01:23:03;;;;;;;18.90;6.57;;;;;;;-5.88;100.00;102879.50;5057176;28;20040;-75
2024/01/10 01:25:29;;;;;;;19.35;6.85;;;;;;;-5.88;100.00;102888.19;5064479;28;20040;-75
2024/01/10 01:27:54;;;;;;;19.58;6.85;;;;;;;-5.86;100.00;102890.91;5065332;28;20443;-75
2024/01/10 01:30:21;;;;;;;19.10;6.80;;;;;;;-5.96;100.00;102879.63;5065463;28;20039;-74
2024/01/10 01:32:47;;;;;;;20.00;6.85;;;;;;;-5.91;100.00;102885.28;5064198;28;20072;-76
2024/01/10 01:35:12;;;;;;;19.60;6.75;;;;;;;-5.90;100.00;102878.47;5057184;28;20064;-78
2024/01/10 01:37:37;;;;;;;19.90;7.20;;;;;;;-5.90;100.00;102879.34;5066899;28;20467;-74
2024/01/10 01:40:03;;;;;;;19.70;6.93;;;;;;;-5.88;100.00;102882.09;5063337;28;20071;-74
2024/01/10 01:42:29;;;;;;;21.30;7.55;;;;;;;-5.96;100.00;102877.06;5065921;28;20033;-74
2024/01/10 01:44:54;;;;;;;19.75;6.82;;;;;;;-6.00;100.00;102879.19;5064774;28;20028;-74
2024/01/10 01:47:19;;;;;;;19.10;7.00;;;;;;;-5.97;100.00;102877.84;5052767;28;20033;-75
2024/01/10 01:49:45;;;;;;;20.55;7.40;;;;;;;-5.95;100.00;102870.25;5065862;28;20055;-74
2024/01/10 01:52:11;;;;;;;19.13;6.75;;;;;;;-5.99;100.00;102874.19;5063298;28;20128;-76
2024/01/10 01:54:36;;;;;;;19.50;6.65;;;;;;;-5.99;100.00;102873.31;5066447;28;20037;-80
2024/01/10 01:57:01;;;;;;;20.10;6.75;;;;;;;-5.95;100.00;102875.41;5063287;28;20021;-80
2024/01/10 01:59:27;;;;;;;20.88;7.07;;;;;;;-5.93;100.00;102873.00;5048088;28;20029;-80
2024/01/10 02:01:54;;;;;;;19.83;6.90;;;;;;;-5.93;100.00;102868.75;5058544;28;20078;-81
2024/01/10 02:04:20;;;;;;;19.70;7.10;;;;;;;-5.96;100.00;102866.75;5064905;28;20025;-80
2024/01/10 02:06:45;;;;;;;19.65;6.60;;;;;;;-5.97;100.00;102872.69;5064239;28;20038;-80
2024/01/10 02:09:11;;;;;;;20.17;7.05;;;;;;;-5.96;100.00;102869.31;5063739;28;20096;-77
2024/01/10 02:11:36;;;;;;;20.20;6.90;;;;;;;-6.02;100.00;102867.84;5065728;28;20040;-80
2024/01/10 02:14:02;;;;;;;20.58;7.25;;;;;;;-6.04;100.00;102867.69;5062687;28;20476;-80
2024/01/10 02:16:28;;;;;;;19.60;6.80;;;;;;;-6.10;100.00;102859.31;5065737;28;20104;-81
2024/01/10 02:18:53;;;;;;;19.83;6.80;;;;;;;-6.01;100.00;102865.41;5063441;28;20025;-77
2024/01/10 02:21:22;;;;;;;20.58;7.18;;;;;;;-6.03;100.00;102871.16;5047197;28;20037;-75
2024/01/10 02:23:47;;;;;;;20.40;6.93;;;;;;;-6.03;100.00;102860.84;5058230;28;20024;-78
2024/01/10 02:26:14;;;;;;;19.80;6.97;;;;;;;-6.02;100.00;102857.53;5063691;28;20029;-77
2024/01/10 02:28:39;;;;;;;19.75;7.05;;;;;;;-6.06;100.00;102858.84;5065399;28;20434;-74
2024/01/10 02:31:04;;;;;;;19.80;7.00;;;;;;;-6.08;100.00;102855.22;5027731;28;20029;-78
2024/01/10 02:33:30;;;;;;;19.40;7.07;;;;;;;-6.05;100.00;102864.94;5065703;28;20045;-77
2024/01/10 02:35:55;;;;;;;19.60;7.18;;;;;;;-6.02;100.00;102862.69;5062634;28;20061;-74
2024/01/10 02:38:23;;;;;;;19.90;7.18;;;;;;;-6.03;100.00;102868.56;5064318;28;20147;-74
2024/01/10 02:40:48;;;;;;;20.13;7.18;;;;;;;-6.10;100.00;102864.47;5063645;28;20468;-74
2024/01/10 02:43:14;;;;;;;20.25;7.47;;;;;;;-6.05;100.00;102854.63;5063325;28;20102;-74
2024/01/10 02:45:39;;;;;;;19.95;7.20;;;;;;;-6.10;100.00;102849.03;5064597;28;20032;-74
2024/01/10 02:48:05;;;;;;;20.10;7.35;;;;;;;-6.11;100.00;102848.88;5061216;28;20044;-74
2024/01/10 02:50:30;;;;;;;20.30;7.25;;;;;;;-6.04;100.00;102851.28;5065275;28;20029;-74
2024/01/10 02:52:55;;;;;;;19.77;7.00;;;;;;;-6.01;100.00;102849.97;5044153;28;20404;-73
2024/01/10 02:55:21;;;;;;;19.67;6.72;;;;;;;-6.04;100.00;102841.00;5046279;28;20036;-73
2024/01/10 02:57:46;;;;;;;19.38;6.78;;;;;;;-6.01;100.00;102837.09;5063399;28;20039;-73
2024/01/10 03:00:12;;;;;;;19.85;7.07;;;;;;;-5.99;100.00;102832.97;5036281;28;20036;-73
2024/01/10 03:02:37;;;;;;;20.63;7.45;;;;;;;-6.00;100.00;102826.03;5063762;28;20043;-73
2024/01/10 03:05:03;;;;;;;20.08;7.32;;;;;;;-6.00;100.00;102831.19;5062311;28;20103;-73
2024/01/10 03:07:28;;;;;;;19.88;7.10;;;;;;;-6.00;100.00;102836.34;5064931;28;20029;-73
2024/01/10 03:09:54;;;;;;;19.95;7.20;;;;;;;-6.00;100.00;102827.69;5048357;28;20056;-73
2024/01/10 03:12:19;;;;;;;19.40;7.00;;;;;;;-5.95;100.00;102829.94;5064315;28;20041;-73
2024/01/10 03:14:45;;;;;;;20.05;6.97;;;;;;;-5.96;100.00;102833.25;5062612;28;20094;-72
2024/01/10 03:17:10;;;;;;;20.20;7.18;;;;;;;-5.97;100.00;102828.00;5062429;28;20029;-72
2024/01/10 03:19:42;;;;;;;19.63;6.90;;;;;;;-5.97;100.00;102825.41;5063665;28;20032;-73
2024/01/10 03:22:07;;;;;;;21.98;7.57;;;;;;;-6.01;100.00;102824.19;5062837;28;20033;-73
2024/01/10 03:24:32;;;;;;;20.65;7.25;;;;;;;-6.10;100.00;102822.34;5063955;28;20098;-73
2024/01/10 03:26:58;;;;;;;19.50;7.10;;;;;;;-6.10;100.00;102824.91;5061027;28;20473;-72
2024/01/10 03:29:23;;;;;;;20.30;7.55;;;;;;;-6.06;100.00;102812.50;5055218;28;20032;-73
2024/01/10 03:31:48;;;;;;;19.73;7.25;;;;;;;-6.05;100.00;102816.00;5064483;28;20055;-73
2024/01/10 03:34:14;;;;;;;19.83;7.05;;;;;;;-6.02;100.00;102818.91;5044346;28;20132;-72
2024/01/10 03:36:39;;;;;;;19.48;6.97;;;;;;;-6.03;100.00;102815.41;5051323;28;20040;-71
2024/01/10 03:39:04;;;;;;;20.40;7.75;;;;;;;-6.00;100.00;102810.59;5063387;28;20454;-72
2024/01/10 03:41:30;;;;;;;19.45;6.80;;;;;;;-6.05;100.00;102816.00;5061257;28;20451;-72
2024/01/10 03:43:55;;;;;;;21.02;7.50;;;;;;;-6.10;100.00;102807.81;5064639;28;20087;-74
2024/01/10 03:46:20;;;;;;;20.70;7.63;;;;;;;-6.12;100.00;102801.56;5061204;28;20071;-73
2024/01/10 03:48:49;;;;;;;20.05;7.53;;;;;;;-6.07;100.00;102808.13;5063308;28;20122;-73
2024/01/10 03:51:16;;;;;;;19.85;7.30;;;;;;;-6.11;100.00;102800.84;5062388;28;20463;-74
2024/01/10 03:53:41;;;;;;;20.73;7.68;;;;;;;-6.11;100.00;102800.84;5062544;28;20036;-75
2024/01/10 03:56:07;;;;;;;19.35;6.88;;;;;;;-6.14;100.00;102795.38;5063043;28;20041;-75
2024/01/10 03:58:32;;;;;;;20.77;7.65;;;;;;;-6.17;100.00;102790.81;5061608;28;20025;-75
2024/01/10 04:00:58;;;;;;;20.40;7.63;;;;;;;-6.16;100.00;102792.63;5056486;28;20057;-76
2024/01/10 04:03:23;;;;;;;20.65;7.57;;;;;;;-6.22;100.00;102789.41;5061107;28;20402;-74
2024/01/10 04:05:48;;;;;;;20.45;7.50;;;;;;;-6.21;100.00;102785.19;5064171;28;20146;-76
2024/01/10 04:08:14;;;;;;;20.30;7.55;;;;;;;-6.17;100.00;102795.06;5054519;28;20029;-76
2024/01/10 04:10:39;;;;;;;19.98;7.70;;;;;;;-6.11;100.00;102785.38;5061787;28;20059;-78
2024/01/10 04:13:04;;;;;;;21.05;7.78;;;;;;;-6.16;100.00;102786.56;5062486;28;20025;-78
2024/01/10 04:15:30;;;;;;;20.00;7.40;;;;;;;-6.11;100.00;102792.22;5054591;28;20446;-78
2024/01/10 04:17:55;;;;;;;20.00;7.18;;;;;;;-6.10;100.00;102781.13;5063793;28;20040;-78
2024/01/10 04:20:21;;;;;;;21.10;7.75;;;;;;;-6.18;100.00;102782.94;5060614;28;20029;-78
2024/01/10 04:22:47;;;;;;;21.55;7.38;;;;;;;-6.20;100.00;102779.31;5064129;28;20566;-78
2024/01/10 04:25:12;;;;;;;20.88;7.22;;;;;;;-6.20;100.00;102789.59;5054664;28;20093;-78
2024/01/10 04:27:37;;;;;;;20.20;7.43;;;;;;;-6.22;100.00;102775.63;5061752;28;20039;-78
2024/01/10 04:30:03;;;;;;;19.75;7.20;;;;;;;-6.26;100.00;102781.22;5065951;28;20060;-77
2024/01/10 04:32:28;;;;;;;20.67;7.53;;;;;;;-6.25;100.00;102783.94;5067046;28;20383;-78
2024/01/10 04:34:54;;;;;;;20.77;7.20;;;;;;;-6.19;100.00;102791.41;5064612;28;20091;-77
2024/01/10 04:37:20;;;;;;;19.42;7.20;;;;;;;-6.27;100.00;102788.03;5067980;28;20032;-78
2024/01/10 04:39:45;;;;;;;20.83;7.68;;;;;;;-6.28;100.00;102785.31;5064945;28;20025;-78
2024/01/10 04:42:11;;;;;;;20.40;7.30;;;;;;;-6.21;100.00;102785.19;5066913;28;20484;-77
2024/01/10 04:44:36;;;;;;;19.80;7.05;;;;;;;-6.20;100.00;102781.88;5065999;28;20033;-77
2024/01/10 04:47:02;;;;;;;19.88;7.60;;;;;;;-6.25;100.00;102775.31;5065469;28;20079;-77
2024/01/10 04:49:28;;;;;;;20.58;7.82;;;;;;;-6.20;100.00;102776.72;5066737;28;20464;-76
2024/01/10 04:51:53;;;;;;;20.48;7.30;;;;;;;-6.30;100.00;102787.72;5064334;28;20071;-75
2024/01/10 04:54:18;;;;;;;20.92;7.47;;;;;;;-6.33;100.00;102783.16;5067496;28;20054;-76
2024/01/10 04:56:44;;;;;;;20.30;7.50;;;;;;;-6.31;100.00;102776.50;5064419;28;20044;-77
2024/01/10 04:59:09;;;;;;;20.38;7.63;;;;;;;-6.32;100.00;102774.69;5066452;28;20029;-77
2024/01/10 05:01:36;;;;;;;19.70;7.30;;;;;;;-6.38;100.00;102768.88;5059947;28;20033;-75
2024/01/10 05:04:02;;;;;;;20.50;7.60;;;;;;;-6.38;100.00;102774.03;5046926;28;20094;-77
2024/01/10 05:06:27;;;;;;;20.17;7.57;;;;;;;-6.40;100.00;102770.41;5065601;28;20531;-70
2024/01/10 05:08:57;;;;;;;20.90;7.68;;;;;;;-6.33;100.00;102772.88;5066122;28;20029;-69
2024/01/10 05:11:24;;;;;;;20.65;7.55;;;;;;;-6.37;100.00;102774.97;5064675;28;20396;-69
2024/01/10 05:13:49;;;;;;;21.40;7.90;;;;;;;-6.39;100.00;102773.88;5067026;28;20163;-69
2024/01/10 05:16:15;;;;;;;20.42;7.80;;;;;;;-6.37;100.00;102778.44;5063825;28;20471;-73
2024/01/10 05:18:40;;;;;;;20.50;7.90;;;;;;;-6.37;100.00;102765.56;5067143;28;20501;-74
2024/01/10 05:21:05;;;;;;;21.17;7.80;;;;;;;-6.36;100.00;102775.13;5064380;28;20052;-70
2024/01/10 05:23:31;;;;;;;21.17;8.00;;;;;;;-6.37;100.00;102781.03;5065583;28;20029;-69
2024/01/10 05:25:56;;;;;;;20.65;7.78;;;;;;;-6.38;100.00;102763.75;5065441;28;20090;-70
2024/01/10 05:28:21;;;;;;;20.98;7.95;;;;;;;-6.38;100.00;102768.00;5064372;28;20040;-72
2024/01/10 05:30:47;;;;;;;21.05;8.00;;;;;;;-6.38;100.00;102771.47;5066650;28;20080;-74
2024/01/10 05:33:12;;;;;;;20.70;7.80;;;;;;;-6.43;100.00;102764.94;5045507;28;20049;-72
2024/01/10 05:35:41;;;;;;;20.67;7.72;;;;;;;-6.41;100.00;102766.00;5066210;28;20028;-73
2024/01/10 05:38:07;;;;;;;21.27;8.18;;;;;;;-6.41;100.00;102763.44;5063559;28;20039;-73
2024/01/10 05:40:32;;;;;;;21.88;7.93;;;;;;;-6.40;100.00;102765.25;5064563;28;20025;-73
2024/01/10 05:43:00;;;;;;;20.15;7.30;;;;;;;-6.35;100.00;102771.81;5064854;28;20035;-71
2024/01/10 05:45:26;;;;;;;21.25;8.02;;;;;;;-6.32;100.00;102764.41;5064395;28;20029;-74
2024/01/10 05:47:52;;;;;;;20.88;7.65;;;;;;;-6.34;100.00;102765.88;5065839;28;20498;-75
2024/01/10 05:50:17;;;;;;;21.17;7.78;;;;;;;-6.37;100.00;102770.72;5063119;28;20038;-75
2024/01/10 05:52:43;;;;;;;20.95;7.63;;;;;;;-6.38;100.00;102776.63;5066350;28;20069;-74
2024/01/10 05:55:09;;;;;;;20.05;7.60;;;;;;;-6.37;100.00;102775.88;5063628;28;20167;-75
2024/01/10 05:57:36;;;;;;;20.52;7.50;;;;;;;-6.37;100.00;102780.13;5065378;28;20059;-76
2024/01/10 06:00:01;;;;;;;21.00;8.10;;;;;;;-6.38;100.00;102768.88;5062342;28;20068;-70
2024/01/10 06:02:27;;;;;;;22.42;10.07;;;;;;;-6.37;100.00;102773.28;5061032;28;20068;-68
2024/01/10 06:04:52;;;;;;;20.83;8.48;;;;;;;-6.43;100.00;102767.53;5064659;28;20078;-71
2024/01/10 06:07:18;;;;;;;21.10;8.35;;;;;;;-6.47;100.00;102762.81;5063951;28;20028;-72
2024/01/10 06:09:43;;;;;;;24.52;12.23;;;;;;;-6.50;100.00;102762.50;5065714;28;20027;-74
2024/01/10 06:12:09;;;;;;;21.30;8.88;;;;;;;-6.54;100.00;102770.63;5062553;28;20049;-72
2024/01/10 06:14:34;;;;;;;22.83;10.30;;;;;;;-6.53;100.00;102764.75;5065862;28;20437;-71
2024/01/10 06:17:01;;;;;;;21.33;8.07;;;;;;;-6.56;100.00;102767.00;5063266;28;20040;-71
2024/01/10 06:19:26;;;;;;;20.98;8.35;;;;;;;-6.56;100.00;102767.91;5064871;28;20033;-72
2024/01/10 06:21:55;;;;;;;20.90;8.10;;;;;;;-6.59;100.00;102759.88;5046228;28;20503;-70
2024/01/10 06:24:21;;;;;;;21.00;8.10;;;;;;;-6.55;100.00;102758.50;5063960;28;20033;-72
2024/01/10 06:26:46;;;;;;;21.23;7.90;;;;;;;-6.60;100.00;102750.31;5039408;28;20044;-70
2024/01/10 06:29:11;;;;;;;22.60;9.45;;;;;;;-6.60;100.00;102754.56;5056331;28;20090;-73
2024/01/10 06:31:37;;;;;;;20.30;8.18;;;;;;;-6.63;100.00;102750.00;5047888;28;20036;-71
2024/01/10 06:34:02;;;;;;;20.60;7.90;;;;;;;-6.59;100.00;102759.88;5062290;28;20496;-72
2024/01/10 06:36:28;;;;;;;20.80;8.27;;;;;;;-6.62;100.00;102767.28;5064699;28;20468;-70
2024/01/10 06:38:53;;;;;;;22.25;9.60;;;;;;;-6.61;100.00;102765.59;5063709;28;20060;-69
2024/01/10 06:41:24;;;;;;;21.00;7.82;;;;;;;-6.59;100.00;102777.00;5063169;28;20061;-69
2024/01/10 06:43:50;;;;;;;20.73;8.05;;;;;;;-6.66;100.00;102768.59;5064200;28;20494;-70
2024/01/10 06:46:15;;;;;;;20.50;7.90;;;;;;;-6.62;100.00;102767.28;5062840;28;20021;-70
2024/01/10 06:48:41;;;;;;;21.90;8.20;;;;;;;-6.67;100.00;102769.38;5065145;28;20525;-68
2024/01/10 06:51:11;;;;;;;20.80;7.97;;;;;;;-6.76;100.00;102765.81;5044110;28;20067;-69
2024/01/10 06:53:36;;;;;;;21.45;8.43;;;;;;;-6.74;100.00;102774.63;5053815;28;20057;-69
2024/01/10 06:56:02;;;;;;;21.98;8.45;;;;;;;-6.73;100.00;102765.25;5043782;28;20064;-73
2024/01/10 06:58:27;;;;;;;22.95;10.95;;;;;;;-6.74;100.00;102766.91;5046941;28;20029;-73
2024/01/10 07:00:52;;;;;;;21.35;8.50;;;;;;;-6.73;100.00;102770.38;5053202;28;20124;-71
2024/01/10 07:03:19;;;;;;;22.02;8.68;;;;;;;-6.73;100.00;102763.56;5063425;28;20051;-73
2024/01/10 07:05:44;;;;;;;21.05;8.25;;;;;;;-6.73;100.00;102758.41;5063629;28;20028;-73
2024/01/10 07:08:09;;;;;;;22.95;8.80;;;;;;;-6.74;100.00;102769.50;5062263;28;20467;-70
2024/01/10 07:10:35;;;;;;;23.25;8.68;;;;;;;-6.66;100.00;102766.03;5055498;28;20024;-71
2024/01/10 07:13:04;;;;;;;21.90;8.70;;;;;;;-6.71;100.00;102772.38;5055360;28;20476;-70
2024/01/10 07:15:29;;;;;;;20.35;8.30;;;;;;;-6.76;100.00;102776.13;5053016;28;20037;-71
2024/01/10 07:17:55;;;;;;;22.48;8.77;;;;;;;-6.77;100.00;102787.19;5065400;28;20563;-73
2024/01/10 07:20:20;;;;;;;21.45;8.13;;;;;;;-6.78;100.00;102776.72;5063919;28;20082;-73
2024/01/10 07:22:45;;;;;;;20.65;8.20;;;;;;;-6.75;100.00;102772.81;5063133;28;20059;-73
2024/01/10 07:25:14;;;;;;;22.63;8.80;;;;;;;-6.71;100.00;102777.53;5062114;28;20385;-73
2024/01/10 07:27:40;;;;;;;21.67;8.50;;;;;;;-6.79;100.00;102773.22;5064146;28;20036;-70
2024/01/10 07:30:13;;;;;;;24.15;10.43;;;;;;;-6.81;100.00;102774.75;5061314;28;20396;-70
2024/01/10 07:32:41;;;;;;;21.38;8.65;;;;;;;-6.81;100.00;102766.09;5063805;28;20379;-71
2024/01/10 07:35:10;;;;;;;22.67;9.38;;;;;;;-6.80;100.00;102761.13;5061449;28;20068;-70
2024/01/10 07:37:39;;;;;;;22.42;9.25;;;;;;;-6.82;100.00;102752.31;5055472;28;20033;-70
2024/01/10 07:40:06;;;;;;;23.20;9.50;;;;;;;-6.88;100.00;102757.75;5063986;28;20039;-72
2024/01/10 07:42:32;;;;;;;21.80;8.73;;;;;;;-6.84;100.00;102764.13;5061136;28;20036;-69
2024/01/10 07:44:58;;;;;;;23.25;9.43;;;;;;;-6.82;100.00;102759.16;5064409;28;20036;-73
2024/01/10 07:47:23;;;;;;;21.83;8.93;;;;;;;-6.80;100.00;102758.56;5038011;28;20442;-69
2024/01/10 07:49:48;;;;;;;23.48;8.93;;;;;;;-6.71;100.00;102762.09;5044503;28;20396;-71
2024/01/10 07:52:16;;;;;;;22.33;9.27;;;;;;;-6.73;100.00;102761.00;5062263;28;20468;-70
2024/01/10 07:54:41;;;;;;;22.10;8.88;;;;;;;-6.68;100.00;102764.97;5055116;28;20056;-71
2024/01/10 07:57:07;;;;;;;23.15;8.90;;;;;;;-6.66;100.00;102755.75;5055006;28;20556;-71
2024/01/10 07:59:32;;;;;;;22.95;10.10;;;;;;;-6.64;100.00;102755.00;5046376;28;20056;-73
2024/01/10 08:02:00;;;;;;;25.55;11.40;;;;;;;-6.61;100.00;102760.47;5056509;28;20107;-70
2024/01/10 08:04:26;;;;;;;22.67;9.50;;;;;;;-6.53;100.00;102762.19;5042413;28;20029;-71
2024/01/10 08:06:53;;;;;;;21.70;9.20;;;;;;;-6.46;100.00;102759.50;5056714;28;20126;-73
2024/01/10 08:09:21;;;;;;;22.38;8.93;;;;;;;-6.37;100.00;102765.56;5063381;28;20028;-73
2024/01/10 08:11:47;;;;;;;22.77;9.10;;;;;;;-6.34;100.00;102770.13;5061558;28;20056;-72
2024/01/10 08:14:13;;;;;;;22.40;9.43;;;;;;;-6.34;100.00;102771.03;5062539;28;20491;-71
2024/01/10 08:16:39;;;;;;;22.45;9.07;;;;;;;-6.26;100.00;102765.78;5062421;28;20035;-72
2024/01/10 08:19:04;;;;;;;22.88;9.10;;;;;;;-6.19;100.00;102775.94;5061581;28;20029;-72
2024/01/10 08:21:29;;;;;;;23.10;9.57;;;;;;;-6.11;100.00;102775.09;5063678;28;20116;-71
2024/01/10 08:23:55;;;;;;;23.88;9.82;;;;;;;-5.88;100.00;102766.16;5047238;28;20033;-72
2024/01/10 08:26:20;;;;;;;22.35;8.82;;;;;;;-5.77;100.00;102773.31;5063750;28;20075;-73
2024/01/10 08:28:46;;;;;;;22.63;9.27;;;;;;;-5.52;100.00;102780.94;5061465;28;20110;-73
2024/01/10 08:31:12;;;;;;;21.75;9.00;;;;;;;-5.41;100.00;102784.59;5057409;28;20033;-71
2024/01/10 08:33:39;;;;;;;21.80;9.00;;;;;;;-5.22;100.00;102772.75;5060464;28;20049;-75
2024/01/10 08:36:04;;;;;;;21.98;9.05;;;;;;;-5.12;100.00;102784.91;5060558;28;20041;-71
2024/01/10 08:38:30;;;;;;;22.38;9.55;;;;;;;-4.99;100.00;102789.59;5063296;28;20028;-71
2024/01/10 08:40:56;;;;;;;21.33;8.80;;;;;;;-4.78;100.00;102785.63;5061354;28;20031;-71
2024/01/10 08:43:21;;;;;;;21.77;9.10;;;;;;;-4.58;100.00;102778.13;5062137;28;20476;-71
2024/01/10 08:45:47;;;;;;;22.02;9.02;;;;;;;-4.43;100.00;102778.69;5062773;28;20455;-71
2024/01/10 08:48:13;;;;;;;23.02;9.02;;;;;;;-4.24;100.00;102783.97;5062069;28;20051;-71
2024/01/10 08:50:38;;;;;;;22.10;8.95;;;;;;;-4.08;100.00;102777.66;5063328;28;20079;-74
2024/01/10 08:53:05;;;;;;;22.45;9.30;;;;;;;-3.95;100.00;102775.44;5042995;28;20488;-72
2024/01/10 08:55:31;;;;;;;21.80;9.57;;;;;;;-3.82;100.00;102782.69;5055548;28;20029;-72
2024/01/10 08:57:57;;;;;;;22.08;9.27;;;;;;;-3.70;100.00;102775.16;5060779;28;20041;-72
2024/01/10 09:00:24;;;;;;;22.20;9.38;;;;;;;-3.54;100.00;102781.00;5062681;28;20078;-72
2024/01/10 09:02:49;;;;;;;22.92;9.25;;;;;;;-3.43;100.00;102783.66;5061892;28;20120;-71
2024/01/10 09:05:15;;;;;;;22.42;9.23;;;;;;;-3.39;100.00;102789.25;5061649;28;20033;-71
2024/01/10 09:07:42;;;;;;;22.92;9.15;;;;;;;-3.14;100.00;102788.00;5063005;28;20032;-72
2024/01/10 09:10:07;;;;;;;22.23;9.23;;;;;;;-2.96;100.00;102780.97;5060474;28;20037;-72
2024/01/10 09:12:33;;;;;;;22.90;9.63;;;;;;;-2.98;100.00;102776.56;5063624;28;20059;-72
2024/01/10 09:14:58;;;;;;;21.67;9.57;;;;;;;-3.01;100.00;102780.56;5060858;28;20094;-72
2024/01/10 09:17:24;;;;;;;23.40;10.32;;;;;;;-2.83;100.00;102783.91;5066086;28;20357;-72
2024/01/10 09:19:49;;;;;;;23.15;10.15;;;;;;;-2.66;100.00;102780.22;5057576;28;20593;-73
2024/01/10 09:22:14;;;;;;;21.67;9.48;;;;;;;-2.37;100.00;102785.38;5066019;28;20483;-75
2024/01/10 09:24:40;;;;;;;21.83;8.98;;;;;;;-2.35;100.00;102788.13;5063947;28;20472;-72
2024/01/10 09:27:05;;;;;;;23.52;9.63;;;;;;;-2.19;100.00;102785.19;5066873;28;20036;-73
2024/01/10 09:29:31;;;;;;;21.27;8.93;;;;;;;-2.21;100.00;102790.22;5063594;28;20025;-74
2024/01/10 09:31:57;;;;;;;23.13;9.80;;;;;;;-1.96;100.00;102797.53;5066141;28;20046;-73
2024/01/10 09:34:22;;;;;;;22.52;9.73;;;;;;;-1.83;100.00;102791.72;5064304;28;20393;-74
2024/01/10 09:36:47;;;;;;;22.63;9.73;;;;;;;-1.70;100.00;102797.19;5053764;28;20032;-74
2024/01/10 09:39:13;;;;;;;22.33;9.82;;;;;;;-1.71;100.00;102799.66;5065538;28;20495;-74
2024/01/10 09:41:47;;;;;;;23.05;9.93;;;;;;;-1.55;100.00;102794.97;5063723;28;20051;-75
2024/01/10 09:44:13;;;;;;;22.02;9.90;;;;;;;-1.47;100.00;102804.31;5066142;28;20050;-75
2024/01/10 09:46:40;;;;;;;22.98;10.00;;;;;;;-1.25;100.00;102800.94;5063356;28;20115;-75
2024/01/10 09:49:06;;;;;;;23.42;11.30;;;;;;;-1.00;100.00;102793.50;5066510;28;20032;-76
2024/01/10 09:51:33;;;;;;;22.40;10.13;;;;;;;-0.72;100.00;102807.03;5063103;28;20365;-76
2024/01/10 09:54:02;;;;;;;22.45;9.93;;;;;;;-0.36;100.00;102803.00;5066030;28;20032;-76
2024/01/10 09:56:27;;;;;;;22.42;9.95;;;;;;;-0.47;100.00;102806.44;5063501;28;20387;-77
2024/01/10 09:58:55;;;;;;;22.58;9.90;;;;;;;-0.59;100.00;102808.94;5065278;28;20027;-78
2024/01/10 10:01:21;;;;;;;22.15;9.75;;;;;;;-0.43;100.00;102805.91;5064251;28;20025;-78
2024/01/10 10:03:49;;;;;;;22.88;10.50;;;;;;;-0.20;100.00;102817.25;5064172;28;20391;-78
2024/01/10 10:06:14;;;;;;;23.35;10.25;;;;;;;-0.15;100.00;102815.88;5065600;28;20036;-79
2024/01/10 10:08:41;;;;;;;22.80;10.07;;;;;;;0.09;100.00;102811.72;5063393;28;20388;-79
2024/01/10 10:11:07;;;;;;;22.75;10.70;;;;;;;0.51;100.00;102809.72;5065982;28;20033;-78
2024/01/10 10:13:35;;;;;;;22.38;10.43;;;;;;;0.51;100.00;102800.22;5062853;28;20029;-80
2024/01/10 10:16:02;;;;;;;23.15;10.48;;;;;;;0.59;100.00;102806.00;5065815;28;20460;-80
2024/01/10 10:18:29;;;;;;;23.25;10.65;;;;;;;0.59;100.00;102803.41;5063006;28;20029;-79
2024/01/10 10:21:07;;;;;;;23.20;10.63;;;;;;;1.07;100.00;102798.28;5065101;28;20036;-80
2024/01/10 10:23:32;;;;;;;23.30;10.90;;;;;;;0.89;92.36;102800.41;5066965;28;20075;-83
2024/01/10 10:25:58;;;;;;;23.33;10.93;;;;;;;0.72;92.73;102810.47;5064958;28;20032;-83
2024/01/10 10:28:28;;;;;;;24.58;11.23;;;;;;;0.86;93.61;102793.28;5063669;28;20056;-74
2024/01/10 10:30:54;;;;;;;23.88;11.02;;;;;;;0.77;90.81;102800.38;5065066;28;20053;-83
2024/01/10 10:33:21;;;;;;;23.55;10.95;;;;;;;0.78;89.20;102790.09;5054312;28;20500;-83
2024/01/10 10:35:46;;;;;;;23.65;11.18;;;;;;;1.30;95.39;102793.06;5063793;28;20029;-82
2024/01/10 10:38:12;;;;;;;24.27;10.95;;;;;;;1.65;86.60;102776.44;5065202;28;20025;-82
2024/01/10 10:40:37;;;;;;;23.92;11.00;;;;;;;1.61;83.80;102779.63;5049843;28;20036;-82
2024/01/10 10:43:04;;;;;;;23.35;10.85;;;;;;;1.90;82.98;102780.81;5056424;28;20029;-82
2024/01/10 10:45:31;;;;;;;23.88;10.85;;;;;;;2.22;81.17;102776.94;5048944;28;20041;-81
2024/01/10 10:47:59;;;;;;;24.65;11.45;;;;;;;2.13;76.58;102771.97;5047777;28;20497;-81
2024/01/10 10:50:29;;;;;;;24.23;10.93;;;;;;;2.41;78.54;102773.88;5061995;28;20036;-80
2024/01/10 10:52:55;;;;;;;23.70;11.30;;;;;;;2.54;76.48;102770.41;5064714;28;20036;-81
2024/01/10 10:55:23;;;;;;;23.90;11.15;;;;;;;2.52;74.35;102777.22;5045761;28;20074;-82
2024/01/10 10:57:49;;;;;;;25.23;12.32;;;;;;;2.88;74.66;102778.78;5063750;28;20044;-81
2024/01/10 11:00:19;;;;;;;25.50;12.38;;;;;;;3.01;72.31;102782.22;5064163;28;20029;-81
2024/01/10 11:02:45;;;;;;;25.45;12.15;;;;;;;3.54;72.66;102779.59;5061118;28;20081;-78